Puxico, Missouri
Current Conditions -  °F | °C
As of 10:53 AM on Wednesday 26 Nov 2014 (Local Time) from KPOF Reporting Station
Overcast Overcast  
Wind Chill: 32°   Ceiling: 7000
Heat Index: 37°   Visibility: 10mi
Dew Point: 31°   Wind: 7mph
Humidity: 79%   Direction: 130°SE
Pressure: 30.05"   Gusts: NA
Location:  36.95°N, 90.16°W
Report Text: KPOF 261653Z AUTO 13006KT 10SM SCT055 OVC070 03/M01 A3005 RMK AO2 SLP181 T00281006
Loading
Personal Weather Stations






























Interactive Weather Map New forecast layout! Learn more

10-Day Weather Forecast

Advertisements
Track Severe Weather on mobile